Time;durP1;ratioP1;P1;durP2;ratioP2;P2;SDS_P1;SDS_P2;PMS_P1;PMS_P2;Temp;Humidity;BMP_temperature;BMP_pressure;BME280_temperature;BME280_humidity;BME280_pressure;Samples;Min_cycle;Max_cycle;Signal;HPM_P1;HPM_P2
2021/08/06 00:00:35;;;;;;;1.30;1.20;;;;;;;18.02;85.37;94942.31;5083683;28;20212;-89
2021/08/06 00:03:02;;;;;;;3.38;1.40;;;;;;;18.03;85.23;94943.09;5083287;28;20201;-88
2021/08/06 00:05:28;;;;;;;2.70;1.30;;;;;;;18.04;85.27;94942.06;5082320;28;20220;-87
2021/08/06 00:07:55;;;;;;;1.73;1.20;;;;;;;18.01;85.17;94945.94;5077886;28;20250;-88
2021/08/06 00:10:22;;;;;;;2.00;1.23;;;;;;;18.07;84.93;94937.16;5067144;28;20207;-88
2021/08/06 00:12:48;;;;;;;1.40;1.30;;;;;;;18.07;86.92;94934.56;5069684;28;20209;-88
2021/08/06 00:15:17;;;;;;;1.27;1.17;;;;;;;18.02;87.51;94929.28;5069148;28;20227;-87
2021/08/06 00:17:44;;;;;;;1.75;1.30;;;;;;;18.05;86.85;94926.19;5068366;28;20217;-88
2021/08/06 00:20:11;;;;;;;1.40;1.30;;;;;;;18.00;88.79;94935.75;5064622;28;20200;-87
2021/08/06 00:22:37;;;;;;;1.30;1.20;;;;;;;17.99;89.08;94921.94;5068458;28;20674;-87
2021/08/06 00:25:05;;;;;;;1.98;1.27;;;;;;;17.98;88.46;94928.16;5084633;28;20373;-88
2021/08/06 00:27:31;;;;;;;1.52;1.30;;;;;;;18.05;86.52;94928.81;5085833;28;20221;-87
2021/08/06 00:29:58;;;;;;;1.40;1.30;;;;;;;18.07;85.84;94926.75;5086195;28;20200;-89
2021/08/06 00:32:26;;;;;;;1.27;1.20;;;;;;;18.05;86.63;94915.78;5070220;28;20366;-88
2021/08/06 00:34:52;;;;;;;1.40;1.30;;;;;;;18.03;87.91;94917.84;5066137;28;20208;-87
2021/08/06 00:37:19;;;;;;;1.98;1.10;;;;;;;17.99;88.18;94921.16;5066127;28;20217;-89
2021/08/06 00:39:45;;;;;;;2.25;1.45;;;;;;;18.01;86.01;94906.84;5065465;28;20206;-88
2021/08/06 00:42:12;;;;;;;1.40;1.30;;;;;;;17.94;87.84;94914.81;5066051;28;20205;-89
2021/08/06 00:44:38;;;;;;;1.83;1.30;;;;;;;17.86;89.23;94920.44;5065248;28;20687;-87
2021/08/06 00:47:05;;;;;;;1.60;1.50;;;;;;;17.90;88.52;94920.75;5065455;28;20221;-88
2021/08/06 00:49:33;;;;;;;2.15;1.38;;;;;;;17.85;87.79;94924.09;5081852;28;20205;-89
2021/08/06 00:52:00;;;;;;;1.50;1.40;;;;;;;17.91;86.75;94927.53;5084957;28;20225;-89
2021/08/06 00:54:26;;;;;;;1.85;1.40;;;;;;;17.88;87.72;94928.03;5085275;28;20204;-88
2021/08/06 00:56:53;;;;;;;1.40;1.30;;;;;;;17.79;90.35;94922.41;5084461;28;20216;-88
2021/08/06 00:59:19;;;;;;;1.38;1.27;;;;;;;17.80;88.78;94920.59;5085008;28;20208;-88
2021/08/06 01:01:56;;;;;;;1.40;1.30;;;;;;;17.79;88.44;94919.81;5083604;28;20196;-89
2021/08/06 01:04:29;;;;;;;1.30;1.20;;;;;;;17.76;87.79;94919.50;5085154;28;20204;-88
2021/08/06 01:07:01;;;;;;;1.83;1.40;;;;;;;17.76;86.79;94922.09;5081669;28;20232;-88
2021/08/06 01:09:33;;;;;;;2.10;1.20;;;;;;;17.76;86.28;94919.50;5084181;28;20197;-88
2021/08/06 01:12:05;;;;;;;1.40;1.30;;;;;;;17.69;87.66;94914.47;5084081;28;20224;-87
2021/08/06 01:14:36;;;;;;;1.30;1.20;;;;;;;17.69;87.73;94917.06;5078202;28;20209;-87
2021/08/06 01:17:05;;;;;;;1.75;1.48;;;;;;;17.71;87.73;94919.41;5064758;28;20221;-89
2021/08/06 01:19:46;;;;;;;1.40;1.30;;;;;;;17.75;87.66;94916.09;5075679;28;20196;-88
2021/08/06 01:22:16;;;;;;;1.38;1.27;;;;;;;17.71;88.89;94912.38;5084553;28;20192;-88
2021/08/06 01:24:49;;;;;;;1.30;1.20;;;;;;;17.65;88.51;94913.34;5083221;28;20185;-88
2021/08/06 01:27:17;;;;;;;2.33;1.30;;;;;;;17.63;88.94;94914.59;5084028;28;20235;-87
2021/08/06 01:29:44;;;;;;;1.30;1.20;;;;;;;17.57;89.93;94916.31;5083748;28;20201;-87
2021/08/06 01:32:10;;;;;;;2.15;1.27;;;;;;;17.55;89.37;94908.72;5083287;28;20224;-88
2021/08/06 01:34:37;;;;;;;1.25;1.20;;;;;;;17.60;89.18;94906.22;5082878;28;20264;-87
2021/08/06 01:37:03;;;;;;;1.35;1.20;;;;;;;17.64;87.50;94903.97;5084000;28;20248;-87
2021/08/06 01:39:30;;;;;;;2.97;1.40;;;;;;;17.52;88.52;94916.22;5084265;28;20205;-87
2021/08/06 01:42:03;;;;;;;2.05;1.10;;;;;;;17.48;88.73;94912.53;5084468;28;20203;-87
2021/08/06 01:44:36;;;;;;;2.97;1.48;;;;;;;17.49;88.23;94908.91;5083621;28;20214;-87
2021/08/06 01:47:09;;;;;;;2.53;1.30;;;;;;;17.52;87.85;94911.00;5084549;28;20221;-87
2021/08/06 01:49:41;;;;;;;1.42;1.10;;;;;;;17.52;87.71;94909.19;5070540;28;20805;-86
2021/08/06 01:52:13;;;;;;;1.55;1.45;;;;;;;17.53;87.34;94900.38;5065297;28;20232;-88
2021/08/06 01:54:42;;;;;;;2.55;1.50;;;;;;;17.49;87.58;94907.09;5065838;28;20284;-86
2021/08/06 01:57:10;;;;;;;3.13;1.38;;;;;;;17.49;87.82;94898.50;5065589;28;20228;-87
2021/08/06 01:59:39;;;;;;;1.60;1.50;;;;;;;17.38;88.18;94894.91;5066235;28;20197;-87
2021/08/06 02:02:06;;;;;;;1.40;1.30;;;;;;;17.16;89.95;94902.59;5065553;28;20689;-87
2021/08/06 02:04:33;;;;;;;1.48;1.38;;;;;;;16.97;91.59;94890.81;5065050;28;20199;-88
2021/08/06 02:07:00;;;;;;;2.28;1.42;;;;;;;16.78;92.12;94892.81;5063837;28;20233;-87
2021/08/06 02:09:27;;;;;;;1.92;1.45;;;;;;;16.77;91.92;94893.84;5064034;28;20201;-87
2021/08/06 02:11:54;;;;;;;1.38;1.30;;;;;;;16.82;91.67;94888.75;5065098;28;20224;-86
2021/08/06 02:14:22;;;;;;;2.13;1.55;;;;;;;16.78;92.23;94895.41;5072100;28;20207;-87
2021/08/06 02:16:52;;;;;;;1.60;1.50;;;;;;;16.88;91.04;94895.63;5069925;28;20224;-87
2021/08/06 02:19:21;;;;;;;1.65;1.55;;;;;;;16.91;90.86;94892.56;5074247;28;20204;-88
2021/08/06 02:21:53;;;;;;;2.60;1.60;;;;;;;17.00;90.37;94886.97;5069568;28;20727;-87
2021/08/06 02:24:21;;;;;;;2.38;1.50;;;;;;;17.10;89.37;94887.97;5083159;28;20216;-89
2021/08/06 02:26:48;;;;;;;1.45;1.35;;;;;;;17.02;89.27;94877.13;5084368;28;20220;-87
2021/08/06 02:29:19;;;;;;;1.48;1.38;;;;;;;17.00;89.10;94876.56;5082846;28;20319;-87
2021/08/06 02:31:45;;;;;;;2.75;1.60;;;;;;;16.95;89.87;94889.47;5065643;28;20680;-87
2021/08/06 02:34:14;;;;;;;2.70;1.52;;;;;;;16.85;90.89;94883.09;5062272;28;20208;-87
2021/08/06 02:36:41;;;;;;;1.85;1.45;;;;;;;16.86;90.67;94882.06;5062652;28;20228;-88
2021/08/06 02:39:14;;;;;;;1.42;1.33;;;;;;;16.83;91.06;94882.53;5063423;28;20201;-88
2021/08/06 02:41:41;;;;;;;2.33;1.50;;;;;;;16.87;90.34;94880.25;5062909;28;20273;-87
2021/08/06 02:44:08;;;;;;;1.52;1.40;;;;;;;16.85;90.13;94877.88;5062816;28;20208;-87
2021/08/06 02:46:34;;;;;;;2.28;1.45;;;;;;;16.83;89.74;94872.13;5063604;28;20224;-87
2021/08/06 02:49:01;;;;;;;2.17;1.40;;;;;;;16.75;91.17;94871.69;5082562;28;20218;-87
2021/08/06 02:51:29;;;;;;;1.40;1.30;;;;;;;16.70;91.32;94875.00;5083068;28;20223;-87
2021/08/06 02:53:55;;;;;;;1.77;1.50;;;;;;;16.64;92.14;94869.94;5081501;28;20223;-87
2021/08/06 02:56:22;;;;;;;3.63;1.40;;;;;;;16.71;92.24;94878.41;5082558;28;20201;-87
2021/08/06 02:58:48;;;;;;;1.50;1.40;;;;;;;16.77;91.79;94872.25;5082851;28;20205;-87
2021/08/06 03:01:14;;;;;;;1.63;1.52;;;;;;;16.72;93.17;94870.38;5082761;28;20734;-87
2021/08/06 03:03:41;;;;;;;2.00;1.20;;;;;;;16.80;91.55;94874.41;5081919;28;20200;-88
2021/08/06 03:06:07;;;;;;;1.60;1.25;;;;;;;16.90;89.96;94869.41;5082454;28;20292;-87
2021/08/06 03:08:36;;;;;;;1.27;1.20;;;;;;;16.98;89.19;94866.41;5082508;28;20221;-87
2021/08/06 03:11:03;;;;;;;1.30;1.20;;;;;;;17.08;88.24;94864.00;5082482;28;20204;-87
2021/08/06 03:13:29;;;;;;;1.40;1.30;;;;;;;17.10;87.96;94879.38;5079659;28;20223;-87
2021/08/06 03:15:55;;;;;;;1.88;1.50;;;;;;;17.15;86.31;94874.22;5062472;28;20221;-87
2021/08/06 03:18:22;;;;;;;1.42;1.05;;;;;;;17.18;85.20;94876.38;5063983;28;20835;-87
2021/08/06 03:20:48;;;;;;;1.98;1.20;;;;;;;17.20;84.46;94871.72;5064282;28;20202;-87
2021/08/06 03:23:15;;;;;;;1.27;1.17;;;;;;;17.17;83.15;94874.78;5083402;28;20193;-88
2021/08/06 03:25:43;;;;;;;1.45;1.35;;;;;;;17.18;83.96;94878.97;5083737;28;20353;-87
2021/08/06 03:28:09;;;;;;;1.30;1.20;;;;;;;17.20;83.66;94887.34;5084060;28;20225;-87
2021/08/06 03:30:37;;;;;;;1.20;1.10;;;;;;;17.18;83.19;94891.97;5084284;28;20201;-88
2021/08/06 03:33:03;;;;;;;1.20;1.10;;;;;;;17.19;83.22;94885.75;5082488;28;20221;-87
2021/08/06 03:35:30;;;;;;;1.70;0.95;;;;;;;17.17;82.62;94891.19;5082585;28;20193;-87
2021/08/06 03:37:56;;;;;;;2.75;1.30;;;;;;;17.17;82.63;94888.59;5083069;28;20229;-88
2021/08/06 03:40:23;;;;;;;2.95;1.40;;;;;;;17.14;82.91;94891.66;5082458;28;20300;-87
2021/08/06 03:42:50;;;;;;;2.63;2.10;;;;;;;17.07;83.12;94887.63;5082718;28;20310;-87
2021/08/06 03:45:17;;;;;;;6.28;5.63;;;;;;;17.03;83.79;94894.31;5081417;28;20551;-87
2021/08/06 03:47:43;;;;;;;2.63;2.42;;;;;;;17.04;83.39;94896.69;5079376;28;20216;-88
2021/08/06 03:50:10;;;;;;;1.60;1.50;;;;;;;17.08;83.28;94900.41;5080121;28;20215;-88
2021/08/06 03:52:37;;;;;;;2.70;2.42;;;;;;;17.04;82.87;94899.28;5079353;28;20232;-88
2021/08/06 03:55:04;;;;;;;5.88;5.28;;;;;;;17.00;82.78;94897.38;5080069;28;20212;-87
2021/08/06 03:57:30;;;;;;;3.75;3.17;;;;;;;16.98;84.37;94899.41;5079476;28;20228;-88
2021/08/06 03:59:58;;;;;;;3.65;2.08;;;;;;;17.00;84.38;94903.38;5079662;28;20196;-88
2021/08/06 04:02:26;;;;;;;1.98;1.40;;;;;;;17.03;83.27;94909.91;5079552;28;20197;-88
2021/08/06 04:04:52;;;;;;;2.38;1.20;;;;;;;17.07;82.69;94900.63;5079574;28;20208;-88
2021/08/06 04:07:19;;;;;;;1.42;1.20;;;;;;;17.10;82.16;94903.56;5078230;28;20243;-88
2021/08/06 04:09:46;;;;;;;1.25;1.13;;;;;;;17.13;81.75;94902.28;5079544;28;20197;-86
2021/08/06 04:12:12;;;;;;;1.83;1.30;;;;;;;17.12;81.71;94906.72;5041950;28;1064534;-86
2021/08/06 04:14:38;;;;;;;1.27;1.13;;;;;;;17.17;81.90;94903.41;5069436;28;20209;-86
2021/08/06 04:17:06;;;;;;;1.42;1.25;;;;;;;17.16;81.76;94907.03;5062325;28;20268;-86
2021/08/06 04:19:33;;;;;;;1.30;1.20;;;;;;;17.22;82.24;94901.69;5078692;28;20205;-86
2021/08/06 04:21:59;;;;;;;3.05;1.30;;;;;;;17.27;82.22;94903.59;5074208;28;20231;-86
2021/08/06 04:24:26;;;;;;;1.55;1.40;;;;;;;17.33;81.66;94901.84;5067126;28;20200;-86
2021/08/06 04:26:53;;;;;;;1.50;1.40;;;;;;;17.35;81.43;94900.59;5074824;28;20231;-84
2021/08/06 04:29:19;;;;;;;1.27;1.17;;;;;;;17.38;81.10;94892.31;5079537;28;20193;-85
2021/08/06 04:31:45;;;;;;;2.20;1.42;;;;;;;17.41;81.43;94884.03;5066386;28;20212;-85
2021/08/06 04:34:13;;;;;;;1.45;1.35;;;;;;;17.51;81.49;94894.59;5067560;28;20229;-85
2021/08/06 04:36:40;;;;;;;1.52;1.42;;;;;;;17.59;81.62;94881.22;5075655;28;20226;-87
2021/08/06 04:39:09;;;;;;;2.22;1.50;;;;;;;17.61;80.25;94888.78;5061034;28;20201;-86
2021/08/06 04:41:35;;;;;;;1.30;1.20;;;;;;;17.62;79.58;94890.38;5063230;28;20204;-86
2021/08/06 04:44:02;;;;;;;1.60;1.50;;;;;;;17.60;79.40;94889.81;5072819;28;20201;-86
2021/08/06 04:46:29;;;;;;;2.22;1.30;;;;;;;17.66;79.53;94894.09;5075398;28;20201;-88
2021/08/06 04:48:55;;;;;;;1.40;1.30;;;;;;;17.67;79.52;94895.69;5059587;28;20237;-85
2021/08/06 04:51:23;;;;;;;1.27;1.17;;;;;;;17.68;79.81;94888.66;5061566;28;20209;-88
2021/08/06 04:53:49;;;;;;;2.35;1.40;;;;;;;17.70;80.38;94889.22;5052613;28;20225;-89
2021/08/06 04:56:16;;;;;;;1.55;1.30;;;;;;;17.74;80.18;94885.09;5052594;28;20197;-88
2021/08/06 04:58:42;;;;;;;2.65;1.27;;;;;;;17.75;79.41;94886.66;5051731;28;20208;-89
2021/08/06 05:01:09;;;;;;;1.83;1.55;;;;;;;17.79;79.69;94880.75;5063088;28;20197;-88
2021/08/06 05:03:35;;;;;;;1.92;1.60;;;;;;;17.81;79.78;94888.34;5072111;28;20204;-88
2021/08/06 05:06:02;;;;;;;1.50;1.40;;;;;;;17.85;80.23;94879.81;5072768;28;20233;-89
2021/08/06 05:08:29;;;;;;;2.35;1.60;;;;;;;17.80;81.99;94884.16;5077938;28;20228;-88
2021/08/06 05:10:56;;;;;;;2.08;1.65;;;;;;;17.82;82.22;94880.28;5076855;28;20205;-88
2021/08/06 05:13:22;;;;;;;2.42;1.60;;;;;;;17.81;82.48;94880.53;5075547;28;20225;-88
2021/08/06 05:15:52;;;;;;;1.60;1.50;;;;;;;17.76;83.87;94880.44;5058401;28;20209;-88
2021/08/06 05:18:18;;;;;;;3.38;1.80;;;;;;;17.75;86.61;94884.06;5058018;28;20316;-88
2021/08/06 05:20:45;;;;;;;1.70;1.60;;;;;;;17.76;85.42;94881.22;5057711;28;20216;-89
2021/08/06 05:23:11;;;;;;;2.83;1.60;;;;;;;17.82;84.70;94876.88;5057659;28;20204;-90
2021/08/06 05:25:39;;;;;;;2.78;1.50;;;;;;;17.81;85.26;94890.94;5055316;28;20209;-90
2021/08/06 05:28:06;;;;;;;1.63;1.50;;;;;;;17.86;84.28;94889.19;5056124;28;20225;-86
2021/08/06 05:30:33;;;;;;;3.53;1.73;;;;;;;17.89;84.17;94880.91;5056969;28;20201;-88
2021/08/06 05:32:59;;;;;;;1.83;1.48;;;;;;;17.92;83.59;94882.22;5056262;28;20234;-88
2021/08/06 05:35:26;;;;;;;2.38;1.80;;;;;;;17.89;84.04;94880.91;5057167;28;20205;-89
2021/08/06 05:37:52;;;;;;;3.03;1.60;;;;;;;17.90;84.10;94885.06;5053354;28;20224;-88
2021/08/06 05:40:19;;;;;;;1.98;1.88;;;;;;;17.94;83.23;94885.38;5055737;28;20201;-89
2021/08/06 05:42:46;;;;;;;2.28;1.63;;;;;;;17.95;82.58;94884.38;5056013;28;20204;-89
2021/08/06 05:45:13;;;;;;;1.77;1.67;;;;;;;17.98;80.99;94880.50;5057451;28;20197;-89
2021/08/06 05:47:47;;;;;;;2.67;1.52;;;;;;;18.01;81.25;94888.63;5056189;28;20220;-88
2021/08/06 05:50:14;;;;;;;3.28;1.85;;;;;;;18.03;81.09;94883.97;5056680;28;20197;-88
2021/08/06 05:52:41;;;;;;;1.83;1.70;;;;;;;18.06;81.34;94883.50;5061407;28;20889;-88
2021/08/06 05:55:08;;;;;;;1.65;1.55;;;;;;;18.10;81.78;94887.16;5056487;28;20277;-90
2021/08/06 05:57:34;;;;;;;4.60;1.70;;;;;;;18.17;81.49;94884.41;5058221;28;20220;-88
2021/08/06 06:00:03;;;;;;;2.50;1.80;;;;;;;18.21;81.14;94883.69;5058070;28;20197;-88
2021/08/06 06:02:29;;;;;;;3.08;1.63;;;;;;;18.23;80.90;94883.44;5035732;28;20199;-87
2021/08/06 06:04:56;;;;;;;2.45;1.50;;;;;;;18.26;80.98;94885.59;5044373;28;20196;-88
2021/08/06 06:07:22;;;;;;;2.38;1.73;;;;;;;18.36;81.62;94880.47;5068423;28;20240;-88
2021/08/06 06:09:49;;;;;;;1.60;1.50;;;;;;;18.41;80.46;94883.16;5055621;28;20208;-89
2021/08/06 06:12:18;;;;;;;2.65;1.80;;;;;;;18.44;79.51;94882.69;5058184;28;20220;-88
2021/08/06 06:14:44;;;;;;;2.35;1.80;;;;;;;18.49;80.32;94881.94;5071152;28;20221;-87
2021/08/06 06:17:12;;;;;;;5.55;1.73;;;;;;;18.54;80.61;94887.22;5068474;28;20674;-86
2021/08/06 06:19:39;;;;;;;3.58;1.70;;;;;;;18.60;79.73;94874.03;5064555;28;20212;-85
2021/08/06 06:22:10;;;;;;;3.15;2.00;;;;;;;18.68;79.70;94878.00;5063146;28;20211;-86
2021/08/06 06:24:43;;;;;;;1.80;1.70;;;;;;;18.77;79.66;94873.16;5067053;28;20208;-87
2021/08/06 06:27:14;;;;;;;3.17;1.70;;;;;;;18.92;78.78;94883.75;5066248;28;20786;-88
2021/08/06 06:29:41;;;;;;;4.82;1.60;;;;;;;18.98;78.88;94882.78;5057029;28;20228;-89
2021/08/06 06:32:24;;;;;;;2.78;1.70;;;;;;;18.98;77.20;94880.97;5070451;28;20193;-88
2021/08/06 06:34:53;;;;;;;1.80;1.70;;;;;;;18.96;77.57;94883.03;5074401;28;20239;-90
2021/08/06 06:37:22;;;;;;;3.90;1.80;;;;;;;18.99;77.60;94884.34;5074774;28;20242;-88
2021/08/06 06:39:52;;;;;;;4.85;1.88;;;;;;;18.95;79.25;94891.88;5076786;28;20197;-89
2021/08/06 06:42:33;;;;;;;3.75;1.80;;;;;;;19.02;78.36;94902.13;5072758;28;20284;-89
2021/08/06 06:45:03;;;;;;;2.05;1.85;;;;;;;19.06;78.29;94894.59;5071644;28;20200;-88
2021/08/06 06:47:40;;;;;;;6.13;1.70;;;;;;;19.14;78.22;94899.38;5075430;28;20259;-88
2021/08/06 06:50:11;;;;;;;3.88;1.90;;;;;;;19.16;78.31;94890.25;5076433;28;20570;-89
2021/08/06 06:52:41;;;;;;;4.57;1.85;;;;;;;19.23;78.63;94890.06;5076072;28;20829;-89
2021/08/06 06:55:11;;;;;;;3.22;1.92;;;;;;;19.30;78.82;94893.25;5079393;28;20227;-88
2021/08/06 06:57:41;;;;;;;2.25;1.60;;;;;;;19.26;76.67;94902.59;5061136;28;20227;-89
2021/08/06 07:00:13;;;;;;;2.38;1.60;;;;;;;19.22;77.15;94912.00;5068180;28;20879;-88
2021/08/06 07:02:44;;;;;;;1.70;1.60;;;;;;;19.01;78.40;94905.00;5069673;28;20203;-88
2021/08/06 07:05:12;;;;;;;4.53;1.60;;;;;;;18.83;80.31;94921.75;5082261;28;20232;-88
2021/08/06 07:07:43;;;;;;;2.38;1.77;;;;;;;18.71;82.82;94915.84;5062604;28;20221;-88
2021/08/06 07:10:13;;;;;;;2.00;1.80;;;;;;;18.61;83.22;94916.53;5052744;28;20308;-88
2021/08/06 07:12:44;;;;;;;2.15;1.83;;;;;;;18.58;86.39;94925.59;5049964;28;20621;-87
2021/08/06 07:15:14;;;;;;;2.63;1.60;;;;;;;18.51;85.59;94935.41;5062736;28;20217;-88
2021/08/06 07:17:41;;;;;;;2.53;1.67;;;;;;;18.45;85.87;94954.66;5058166;28;20457;-88
2021/08/06 07:20:12;;;;;;;1.73;1.63;;;;;;;18.37;86.78;94965.47;5059526;28;20209;-87
2021/08/06 07:22:44;;;;;;;2.95;1.88;;;;;;;18.22;86.95;94973.88;5058628;28;20210;-87
2021/08/06 07:25:13;;;;;;;2.28;1.95;;;;;;;18.24;86.91;94977.03;5071865;28;20193;-87
2021/08/06 07:27:40;;;;;;;2.53;1.90;;;;;;;18.27;87.22;94988.78;5068894;28;20256;-88
2021/08/06 07:30:09;;;;;;;2.15;1.90;;;;;;;18.21;90.41;94992.34;5081644;28;20197;-86
2021/08/06 07:32:36;;;;;;;1.90;1.77;;;;;;;18.22;89.43;94986.91;5086143;28;20232;-87
2021/08/06 07:35:03;;;;;;;2.03;1.75;;;;;;;18.24;90.08;95003.09;5074407;28;20224;-87
2021/08/06 07:37:31;;;;;;;2.85;2.10;;;;;;;18.24;89.15;95003.09;5071144;28;20281;-87
2021/08/06 07:39:58;;;;;;;2.65;1.90;;;;;;;18.26;89.68;95001.03;5074931;28;20196;-86
2021/08/06 07:42:24;;;;;;;4.05;1.90;;;;;;;18.24;89.52;95012.72;5074230;28;20193;-88
2021/08/06 07:44:51;;;;;;;1.92;1.80;;;;;;;18.30;89.34;95007.31;5083334;28;20254;-87
2021/08/06 07:47:21;;;;;;;2.72;1.85;;;;;;;18.34;89.68;94999.03;5088668;28;20230;-86
2021/08/06 07:49:53;;;;;;;1.77;1.67;;;;;;;18.37;89.66;95011.59;5066222;28;20219;-87
2021/08/06 07:52:20;;;;;;;1.90;1.80;;;;;;;18.40;89.62;95004.09;5065493;28;20212;-88
2021/08/06 07:54:52;;;;;;;1.95;1.80;;;;;;;18.38;89.97;95005.34;5067471;28;20225;-87
2021/08/06 07:57:21;;;;;;;2.13;1.90;;;;;;;18.38;90.65;95006.16;5081711;28;20224;-88
2021/08/06 07:59:50;;;;;;;2.28;2.08;;;;;;;18.33;91.11;95008.66;5088053;28;20204;-87
2021/08/06 08:02:23;;;;;;;1.83;1.60;;;;;;;18.43;90.42;95003.63;5085217;28;20211;-86
2021/08/06 08:04:50;;;;;;;2.58;1.70;;;;;;;18.42;93.17;94999.44;5086152;28;20196;-87
2021/08/06 08:07:21;;;;;;;2.03;1.80;;;;;;;18.54;90.48;94992.28;5086380;28;20263;-87
2021/08/06 08:09:51;;;;;;;1.90;1.80;;;;;;;18.68;90.92;94999.78;5088674;28;20184;-86
2021/08/06 08:12:21;;;;;;;2.10;1.90;;;;;;;18.60;90.64;95004.41;5088448;28;20272;-87
2021/08/06 08:14:50;;;;;;;2.47;1.70;;;;;;;18.49;89.89;95012.28;5082904;28;20220;-86
2021/08/06 08:17:25;;;;;;;1.98;1.88;;;;;;;18.53;89.93;95003.75;5087791;28;20288;-87
2021/08/06 08:19:52;;;;;;;2.13;1.92;;;;;;;18.54;92.62;94999.31;5088494;28;20210;-85
2021/08/06 08:22:21;;;;;;;2.08;1.98;;;;;;;18.45;90.98;95006.00;5087434;28;20232;-86
2021/08/06 08:24:52;;;;;;;2.25;1.90;;;;;;;18.50;91.64;94998.22;5087651;28;20197;-87
2021/08/06 08:27:22;;;;;;;2.83;1.95;;;;;;;18.60;91.60;94999.19;5087779;28;20280;-86
2021/08/06 08:29:51;;;;;;;2.35;1.85;;;;;;;18.71;90.60;94999.31;5087825;28;20196;-86
2021/08/06 08:32:25;;;;;;;2.25;2.05;;;;;;;18.78;91.27;94994.72;5090122;28;20185;-86
2021/08/06 08:34:51;;;;;;;3.08;2.20;;;;;;;18.79;90.43;94996.28;5084344;28;20225;-86
2021/08/06 08:37:21;;;;;;;2.05;1.95;;;;;;;18.87;90.28;95001.88;5072106;28;20256;-87
2021/08/06 08:39:54;;;;;;;2.10;1.70;;;;;;;18.84;89.92;95004.97;5075900;28;20224;-87
2021/08/06 08:42:21;;;;;;;2.95;1.73;;;;;;;18.89;92.01;94999.81;5074104;28;20257;-88
2021/08/06 08:44:51;;;;;;;2.28;1.98;;;;;;;19.08;90.50;95005.50;5075171;28;20194;-88
2021/08/06 08:47:23;;;;;;;2.00;1.90;;;;;;;19.19;91.97;94998.59;5075118;28;20205;-87
2021/08/06 08:49:52;;;;;;;4.00;2.03;;;;;;;19.16;88.93;95007.72;5069147;28;20205;-88
2021/08/06 08:52:22;;;;;;;1.88;1.77;;;;;;;19.03;87.83;95002.88;5069273;28;20235;-87
2021/08/06 08:54:53;;;;;;;2.08;1.50;;;;;;;19.08;89.31;95005.50;5067022;28;21211;-87
2021/08/06 08:57:24;;;;;;;1.50;1.23;;;;;;;19.03;85.34;95002.88;5072854;28;20236;-88
2021/08/06 08:59:55;;;;;;;1.13;1.10;;;;;;;19.02;85.75;95006.50;5077832;28;20190;-87
2021/08/06 09:02:24;;;;;;;1.42;1.33;;;;;;;19.08;85.61;95002.91;5081377;28;20204;-88
2021/08/06 09:05:12;;;;;;;1.45;1.35;;;;;;;19.37;86.15;95000.88;5083687;28;20201;-89
2021/08/06 09:07:38;;;;;;;2.22;1.50;;;;;;;19.45;84.50;94997.81;5069332;28;20278;-87
2021/08/06 09:10:08;;;;;;;2.67;1.35;;;;;;;19.54;84.62;94988.56;5067506;28;20200;-87
2021/08/06 09:12:50;;;;;;;1.50;1.25;;;;;;;19.74;83.59;94992.38;5068846;28;20702;-89
2021/08/06 09:15:17;;;;;;;1.52;1.42;;;;;;;20.00;80.37;94999.41;5065890;28;20390;-88
2021/08/06 09:17:44;;;;;;;1.42;1.33;;;;;;;20.48;78.54;94997.69;5075509;28;20224;-88
2021/08/06 09:20:11;;;;;;;1.52;1.42;;;;;;;20.88;78.23;94995.28;5075788;28;20212;-88
2021/08/06 09:22:41;;;;;;;1.52;1.42;;;;;;;21.21;74.43;94990.72;5086041;28;20224;-87
2021/08/06 09:25:12;;;;;;;1.80;1.70;;;;;;;21.44;73.91;95003.34;5068949;28;20220;-88
2021/08/06 09:27:40;;;;;;;1.60;1.50;;;;;;;21.57;69.15;95005.47;5065394;28;20221;-88
2021/08/06 09:30:13;;;;;;;1.90;1.40;;;;;;;21.74;70.29;95001.84;5065924;28;20212;-87
2021/08/06 09:32:49;;;;;;;1.45;1.35;;;;;;;21.82;68.86;94993.47;5073391;28;20204;-89
2021/08/06 09:35:17;;;;;;;3.92;1.50;;;;;;;21.76;67.17;94991.88;5087786;28;20254;-87
2021/08/06 09:37:45;;;;;;;2.10;1.48;;;;;;;21.52;68.09;95007.31;5070458;28;20312;-88
2021/08/06 09:40:18;;;;;;;1.40;1.30;;;;;;;21.48;66.81;95006.25;5063650;28;20205;-87
2021/08/06 09:42:54;;;;;;;1.60;1.27;;;;;;;21.44;67.01;95002.56;5059262;28;20201;-86
2021/08/06 09:45:22;;;;;;;1.70;1.50;;;;;;;21.32;67.85;94990.50;5061676;28;20189;-87
2021/08/06 09:47:55;;;;;;;1.50;1.27;;;;;;;21.15;69.35;94986.50;5063346;28;20218;-89
2021/08/06 09:50:25;;;;;;;1.60;1.40;;;;;;;20.94;69.74;94998.72;5072856;28;20845;-88
2021/08/06 09:52:53;;;;;;;1.42;1.33;;;;;;;20.72;70.84;94995.47;5081383;28;20215;-87
2021/08/06 09:55:24;;;;;;;1.90;1.40;;;;;;;20.53;71.18;95008.19;5081596;28;20217;-88
2021/08/06 09:57:54;;;;;;;3.53;1.65;;;;;;;20.51;72.64;95005.03;5083449;28;20228;-87
2021/08/06 10:00:23;;;;;;;1.48;1.38;;;;;;;20.57;73.18;95001.41;5078330;28;20200;-87
2021/08/06 10:02:50;;;;;;;1.10;1.10;;;;;;;21.08;71.09;95004.25;5083610;28;20200;-87
2021/08/06 10:05:18;;;;;;;2.05;1.40;;;;;;;21.02;71.10;95004.22;5083632;28;20250;-87
2021/08/06 10:07:47;;;;;;;1.63;1.50;;;;;;;20.97;69.71;95006.81;5077471;28;20300;-87
2021/08/06 10:10:15;;;;;;;1.40;1.30;;;;;;;20.96;69.92;95001.88;5076119;28;20211;-87
2021/08/06 10:12:44;;;;;;;2.50;1.98;;;;;;;20.96;69.29;95007.91;5079033;28;20208;-87
2021/08/06 10:15:12;;;;;;;2.00;1.58;;;;;;;20.93;67.86;95010.22;5065715;28;20520;-86
2021/08/06 10:17:38;;;;;;;1.85;1.50;;;;;;;20.73;66.43;95000.44;5060824;28;20677;-86
2021/08/06 10:20:07;;;;;;;2.25;1.52;;;;;;;20.86;66.07;95005.22;5061763;28;20288;-88
2021/08/06 10:22:34;;;;;;;2.10;1.40;;;;;;;21.51;66.50;95000.50;5061613;28;20205;-86
2021/08/06 10:25:05;;;;;;;1.60;1.50;;;;;;;21.98;61.25;95002.91;5078603;28;20197;-87
2021/08/06 10:27:32;;;;;;;1.63;1.40;;;;;;;22.32;59.56;94990.84;5080744;28;20217;-87
2021/08/06 10:30:05;;;;;;;1.50;1.40;;;;;;;22.68;58.66;94982.94;5065125;28;20212;-86
2021/08/06 10:32:33;;;;;;;2.00;1.48;;;;;;;22.66;57.00;94990.28;5061981;28;20197;-87
2021/08/06 10:35:20;;;;;;;3.65;1.50;;;;;;;22.51;57.25;94978.00;5060989;28;20232;-86
2021/08/06 10:38:05;;;;;;;2.00;1.40;;;;;;;22.78;56.63;94977.69;5064152;28;20229;-87
2021/08/06 10:40:58;;;;;;;2.25;1.77;;;;;;;23.14;57.60;94986.19;5064668;28;20193;-87
2021/08/06 10:43:46;;;;;;;1.42;1.33;;;;;;;23.18;56.43;94976.72;5015554;28;20208;-86
2021/08/06 10:46:18;;;;;;;1.30;1.20;;;;;;;23.07;56.99;94973.38;5061662;28;20197;-86
2021/08/06 10:48:46;;;;;;;2.78;1.60;;;;;;;23.13;54.52;94978.59;5061996;28;20241;-87
2021/08/06 10:51:33;;;;;;;1.95;1.40;;;;;;;23.15;54.11;94971.22;5060433;28;20618;-88
2021/08/06 10:54:34;;;;;;;1.88;1.27;;;;;;;23.36;54.61;94964.81;5063344;28;20205;-86
2021/08/06 10:57:25;;;;;;;1.45;1.30;;;;;;;23.56;52.75;94966.56;5064428;28;20217;-87
2021/08/06 10:59:53;;;;;;;1.58;1.42;;;;;;;23.24;52.85;94952.03;5056582;28;20205;-88
2021/08/06 11:02:46;;;;;;;1.70;1.60;;;;;;;22.92;52.71;94955.03;5070179;28;20223;-88
2021/08/06 11:05:40;;;;;;;1.58;1.48;;;;;;;22.91;52.88;94950.84;5079174;28;20193;-88
2021/08/06 11:08:56;;;;;;;3.92;1.40;;;;;;;22.86;52.51;94948.25;5083360;28;20834;-87
2021/08/06 11:11:49;;;;;;;2.97;1.58;;;;;;;22.81;52.56;94944.88;5083888;28;20193;-87
2021/08/06 11:14:52;;;;;;;1.80;1.27;;;;;;;22.83;53.74;94940.13;5075637;28;20205;-88
2021/08/06 11:17:20;;;;;;;3.75;1.52;;;;;;;23.07;52.85;94938.47;4978511;28;20235;-87
2021/08/06 11:19:49;;;;;;;2.13;1.40;;;;;;;23.33;52.32;94936.47;4977580;28;20762;-89
2021/08/06 11:22:26;;;;;;;1.67;1.30;;;;;;;23.39;50.52;94953.78;5014063;28;20216;-88
2021/08/06 11:24:58;;;;;;;3.03;1.58;;;;;;;23.08;50.15;94947.91;5071667;28;20196;-88
2021/08/06 11:27:40;;;;;;;3.13;1.40;;;;;;;23.08;49.25;94940.81;5077320;28;20373;-88
2021/08/06 11:30:11;;;;;;;1.83;1.40;;;;;;;23.31;49.87;94947.25;5077991;28;20201;-88
2021/08/06 11:32:49;;;;;;;1.45;1.30;;;;;;;23.28;49.29;94931.25;5076703;28;20274;-88
2021/08/06 11:35:19;;;;;;;1.92;1.50;;;;;;;23.22;50.92;94937.59;5079739;28;20227;-88
2021/08/06 11:37:49;;;;;;;3.63;1.48;;;;;;;23.18;50.87;94932.09;5077796;28;20245;-88
2021/08/06 11:40:17;;;;;;;1.40;1.30;;;;;;;23.10;50.68;94932.63;5073659;28;20231;-88
2021/08/06 11:42:44;;;;;;;1.55;1.40;;;;;;;23.08;50.41;94943.44;5073018;28;20225;-88
2021/08/06 11:45:13;;;;;;;4.43;1.63;;;;;;;23.27;48.60;94930.47;5072845;28;20296;-88